sensor_id;sensor_type;location;lat;lon;timestamp;temperature;humidity
4324;DHT22;2175;51.018;6.994;2023-06-22T01:08:51;22.40;99.90
4324;DHT22;2175;51.018;6.994;2023-06-22T01:11:25;22.40;99.90
4324;DHT22;2175;51.018;6.994;2023-06-22T01:14:06;22.40;99.90
4324;DHT22;2175;51.018;6.994;2023-06-22T01:16:36;22.40;99.90
4324;DHT22;2175;51.018;6.994;2023-06-22T01:21:53;22.40;99.90
4324;DHT22;2175;51.018;6.994;2023-06-22T01:24:22;22.40;99.90
4324;DHT22;2175;51.018;6.994;2023-06-22T01:29:40;22.30;99.90
4324;DHT22;2175;51.018;6.994;2023-06-22T01:32:09;22.30;99.90
4324;DHT22;2175;51.018;6.994;2023-06-22T01:34:37;22.30;99.90
4324;DHT22;2175;51.018;6.994;2023-06-22T01:37:05;22.30;99.90
4324;DHT22;2175;51.018;6.994;2023-06-22T01:39:32;22.30;99.90
4324;DHT22;2175;51.018;6.994;2023-06-22T01:41:58;22.30;99.90
4324;DHT22;2175;51.018;6.994;2023-06-22T01:44:25;22.30;99.90
4324;DHT22;2175;51.018;6.994;2023-06-22T01:46:52;22.30;99.90
4324;DHT22;2175;51.018;6.994;2023-06-22T01:49:18;22.20;99.90
4324;DHT22;2175;51.018;6.994;2023-06-22T01:51:44;22.20;99.90
4324;DHT22;2175;51.018;6.994;2023-06-22T01:54:09;22.10;99.90
4324;DHT22;2175;51.018;6.994;2023-06-22T01:56:35;22.10;99.90
4324;DHT22;2175;51.018;6.994;2023-06-22T01:59:14;22.10;99.90
4324;DHT22;2175;51.018;6.994;2023-06-22T02:01:54;22.10;99.90
4324;DHT22;2175;51.018;6.994;2023-06-22T02:04:24;22.10;99.90
4324;DHT22;2175;51.018;6.994;2023-06-22T02:06:56;22.10;99.90
4324;DHT22;2175;51.018;6.994;2023-06-22T02:09:23;22.10;99.90
4324;DHT22;2175;51.018;6.994;2023-06-22T02:11:52;22.10;99.90
4324;DHT22;2175;51.018;6.994;2023-06-22T02:14:21;22.10;99.90
4324;DHT22;2175;51.018;6.994;2023-06-22T02:16:47;22.10;99.90
4324;DHT22;2175;51.018;6.994;2023-06-22T02:19:13;22.00;99.90
4324;DHT22;2175;51.018;6.994;2023-06-22T02:21:41;22.00;99.90
4324;DHT22;2175;51.018;6.994;2023-06-22T02:24:06;22.00;99.90
4324;DHT22;2175;51.018;6.994;2023-06-22T02:26:32;22.00;99.90
4324;DHT22;2175;51.018;6.994;2023-06-22T02:28:58;21.90;99.90
4324;DHT22;2175;51.018;6.994;2023-06-22T02:31:23;21.90;99.90
4324;DHT22;2175;51.018;6.994;2023-06-22T02:33:56;21.90;99.90
4324;DHT22;2175;51.018;6.994;2023-06-22T02:36:23;21.90;99.90
4324;DHT22;2175;51.018;6.994;2023-06-22T02:38:49;21.90;99.90
4324;DHT22;2175;51.018;6.994;2023-06-22T02:41:16;21.90;99.90
4324;DHT22;2175;51.018;6.994;2023-06-22T02:43:45;21.90;99.90
4324;DHT22;2175;51.018;6.994;2023-06-22T02:46:12;21.80;99.90
4324;DHT22;2175;51.018;6.994;2023-06-22T02:48:39;21.80;99.90
4324;DHT22;2175;51.018;6.994;2023-06-22T02:51:05;21.90;99.90
4324;DHT22;2175;51.018;6.994;2023-06-22T02:53:30;21.80;99.90
4324;DHT22;2175;51.018;6.994;2023-06-22T02:55:57;21.80;99.90
4324;DHT22;2175;51.018;6.994;2023-06-22T02:58:22;21.90;99.90
4324;DHT22;2175;51.018;6.994;2023-06-22T03:00:50;21.90;99.90
4324;DHT22;2175;51.018;6.994;2023-06-22T03:03:18;21.90;99.90
4324;DHT22;2175;51.018;6.994;2023-06-22T03:05:44;21.90;99.90
4324;DHT22;2175;51.018;6.994;2023-06-22T03:08:10;21.90;99.90
4324;DHT22;2175;51.018;6.994;2023-06-22T03:10:35;21.90;99.90
4324;DHT22;2175;51.018;6.994;2023-06-22T03:13:01;21.90;99.90
4324;DHT22;2175;51.018;6.994;2023-06-22T03:15:27;21.80;99.90
4324;DHT22;2175;51.018;6.994;2023-06-22T03:17:54;21.80;99.90
4324;DHT22;2175;51.018;6.994;2023-06-22T03:20:20;21.70;99.90
4324;DHT22;2175;51.018;6.994;2023-06-22T03:22:46;21.70;99.90
4324;DHT22;2175;51.018;6.994;2023-06-22T03:25:14;21.70;99.90
4324;DHT22;2175;51.018;6.994;2023-06-22T03:27:40;21.70;99.90
4324;DHT22;2175;51.018;6.994;2023-06-22T03:30:08;21.60;99.90
4324;DHT22;2175;51.018;6.994;2023-06-22T03:32:33;21.70;99.90
4324;DHT22;2175;51.018;6.994;2023-06-22T03:34:59;21.70;99.90
4324;DHT22;2175;51.018;6.994;2023-06-22T03:37:25;21.70;99.90
4324;DHT22;2175;51.018;6.994;2023-06-22T03:39:51;21.70;99.90
4324;DHT22;2175;51.018;6.994;2023-06-22T03:42:17;21.70;99.90
4324;DHT22;2175;51.018;6.994;2023-06-22T03:44:43;21.70;99.90
4324;DHT22;2175;51.018;6.994;2023-06-22T03:47:08;21.70;99.90
4324;DHT22;2175;51.018;6.994;2023-06-22T03:49:35;21.70;99.90
4324;DHT22;2175;51.018;6.994;2023-06-22T03:52:02;21.70;99.90
4324;DHT22;2175;51.018;6.994;2023-06-22T03:54:31;21.70;99.90
4324;DHT22;2175;51.018;6.994;2023-06-22T03:56:57;21.70;99.90
4324;DHT22;2175;51.018;6.994;2023-06-22T03:59:23;21.60;99.90
4324;DHT22;2175;51.018;6.994;2023-06-22T04:01:49;21.50;99.90
4324;DHT22;2175;51.018;6.994;2023-06-22T04:04:17;21.50;99.90
4324;DHT22;2175;51.018;6.994;2023-06-22T04:06:43;21.50;99.90
4324;DHT22;2175;51.018;6.994;2023-06-22T04:09:08;21.50;99.90
4324;DHT22;2175;51.018;6.994;2023-06-22T04:11:34;21.50;99.90
4324;DHT22;2175;51.018;6.994;2023-06-22T04:13:59;21.50;99.90
4324;DHT22;2175;51.018;6.994;2023-06-22T04:16:25;21.60;99.90
4324;DHT22;2175;51.018;6.994;2023-06-22T04:18:51;21.60;99.90
4324;DHT22;2175;51.018;6.994;2023-06-22T04:21:16;21.60;99.90
4324;DHT22;2175;51.018;6.994;2023-06-22T04:23:42;21.60;99.90
4324;DHT22;2175;51.018;6.994;2023-06-22T04:26:09;21.60;99.90
4324;DHT22;2175;51.018;6.994;2023-06-22T04:28:34;21.70;99.90
4324;DHT22;2175;51.018;6.994;2023-06-22T04:31:03;21.70;99.90
4324;DHT22;2175;51.018;6.994;2023-06-22T04:33:30;21.80;99.90
4324;DHT22;2175;51.018;6.994;2023-06-22T04:35:56;21.80;99.90
4324;DHT22;2175;51.018;6.994;2023-06-22T04:38:23;21.70;99.90
4324;DHT22;2175;51.018;6.994;2023-06-22T04:40:49;21.80;99.90
4324;DHT22;2175;51.018;6.994;2023-06-22T04:43:15;21.80;99.90
4324;DHT22;2175;51.018;6.994;2023-06-22T04:45:40;21.80;99.90
4324;DHT22;2175;51.018;6.994;2023-06-22T04:48:06;21.90;99.90
4324;DHT22;2175;51.018;6.994;2023-06-22T04:50:34;21.90;99.90
4324;DHT22;2175;51.018;6.994;2023-06-22T04:52:59;21.90;99.90
4324;DHT22;2175;51.018;6.994;2023-06-22T04:55:25;22.00;99.90
4324;DHT22;2175;51.018;6.994;2023-06-22T04:57:51;22.00;99.90
4324;DHT22;2175;51.018;6.994;2023-06-22T05:00:20;21.90;99.90
4324;DHT22;2175;51.018;6.994;2023-06-22T05:02:48;21.90;99.90
4324;DHT22;2175;51.018;6.994;2023-06-22T05:05:14;21.90;99.90
4324;DHT22;2175;51.018;6.994;2023-06-22T05:07:44;21.90;99.90
4324;DHT22;2175;51.018;6.994;2023-06-22T05:10:11;21.90;99.90
4324;DHT22;2175;51.018;6.994;2023-06-22T05:12:39;21.90;99.90
4324;DHT22;2175;51.018;6.994;2023-06-22T05:15:06;21.90;99.90
4324;DHT22;2175;51.018;6.994;2023-06-22T05:17:32;22.00;99.90
4324;DHT22;2175;51.018;6.994;2023-06-22T05:19:58;22.00;99.90
4324;DHT22;2175;51.018;6.994;2023-06-22T05:22:24;22.00;99.90
4324;DHT22;2175;51.018;6.994;2023-06-22T05:24:49;22.00;99.90
4324;DHT22;2175;51.018;6.994;2023-06-22T05:27:15;22.00;99.90
4324;DHT22;2175;51.018;6.994;2023-06-22T05:29:40;22.00;99.90
4324;DHT22;2175;51.018;6.994;2023-06-22T05:32:06;21.90;99.90
4324;DHT22;2175;51.018;6.994;2023-06-22T05:34:32;21.90;99.90
4324;DHT22;2175;51.018;6.994;2023-06-22T05:36:58;21.90;99.90
4324;DHT22;2175;51.018;6.994;2023-06-22T05:39:27;21.90;99.90
4324;DHT22;2175;51.018;6.994;2023-06-22T05:41:52;22.00;99.90
4324;DHT22;2175;51.018;6.994;2023-06-22T05:44:18;22.00;99.90
4324;DHT22;2175;51.018;6.994;2023-06-22T05:46:45;22.10;99.90
4324;DHT22;2175;51.018;6.994;2023-06-22T05:49:15;22.10;99.90
4324;DHT22;2175;51.018;6.994;2023-06-22T05:51:41;22.20;99.90
4324;DHT22;2175;51.018;6.994;2023-06-22T05:54:07;22.20;99.90
4324;DHT22;2175;51.018;6.994;2023-06-22T05:56:34;22.40;99.90
4324;DHT22;2175;51.018;6.994;2023-06-22T05:59:00;22.40;99.90
4324;DHT22;2175;51.018;6.994;2023-06-22T06:01:25;22.40;99.90
4324;DHT22;2175;51.018;6.994;2023-06-22T06:03:51;22.50;99.90
4324;DHT22;2175;51.018;6.994;2023-06-22T06:06:18;22.60;99.90
4324;DHT22;2175;51.018;6.994;2023-06-22T06:08:48;22.70;99.90
4324;DHT22;2175;51.018;6.994;2023-06-22T06:11:14;22.90;99.90
4324;DHT22;2175;51.018;6.994;2023-06-22T06:13:40;22.90;99.90
4324;DHT22;2175;51.018;6.994;2023-06-22T06:16:05;22.90;99.90
4324;DHT22;2175;51.018;6.994;2023-06-22T06:18:31;23.00;99.90
4324;DHT22;2175;51.018;6.994;2023-06-22T06:20:57;23.10;99.90
4324;DHT22;2175;51.018;6.994;2023-06-22T06:23:22;23.20;99.90
4324;DHT22;2175;51.018;6.994;2023-06-22T06:25:48;23.30;99.90
4324;DHT22;2175;51.018;6.994;2023-06-22T06:28:13;23.40;99.90
4324;DHT22;2175;51.018;6.994;2023-06-22T06:30:39;23.30;99.90
4324;DHT22;2175;51.018;6.994;2023-06-22T06:33:06;23.40;99.90
4324;DHT22;2175;51.018;6.994;2023-06-22T06:35:34;23.50;99.90
4324;DHT22;2175;51.018;6.994;2023-06-22T06:37:59;23.60;99.90
4324;DHT22;2175;51.018;6.994;2023-06-22T06:40:25;23.70;99.90
4324;DHT22;2175;51.018;6.994;2023-06-22T06:42:51;23.70;99.90
4324;DHT22;2175;51.018;6.994;2023-06-22T06:45:23;23.80;99.90
4324;DHT22;2175;51.018;6.994;2023-06-22T06:47:50;23.80;99.90
4324;DHT22;2175;51.018;6.994;2023-06-22T06:50:17;23.80;99.90
4324;DHT22;2175;51.018;6.994;2023-06-22T06:52:42;23.90;99.90
4324;DHT22;2175;51.018;6.994;2023-06-22T06:55:09;23.90;99.90
4324;DHT22;2175;51.018;6.994;2023-06-22T06:57:38;23.90;99.90
4324;DHT22;2175;51.018;6.994;2023-06-22T07:00:11;24.10;99.90
4324;DHT22;2175;51.018;6.994;2023-06-22T07:02:43;24.20;99.90
4324;DHT22;2175;51.018;6.994;2023-06-22T07:05:10;24.30;99.90
4324;DHT22;2175;51.018;6.994;2023-06-22T07:07:36;24.30;99.90
4324;DHT22;2175;51.018;6.994;2023-06-22T07:10:02;24.30;99.90
4324;DHT22;2175;51.018;6.994;2023-06-22T07:12:28;24.30;99.90
4324;DHT22;2175;51.018;6.994;2023-06-22T07:15:02;24.30;99.90
4324;DHT22;2175;51.018;6.994;2023-06-22T07:17:28;24.40;99.90
4324;DHT22;2175;51.018;6.994;2023-06-22T07:19:53;24.30;99.90
4324;DHT22;2175;51.018;6.994;2023-06-22T07:22:19;24.40;99.90
4324;DHT22;2175;51.018;6.994;2023-06-22T07:24:44;24.40;99.90
4324;DHT22;2175;51.018;6.994;2023-06-22T07:27:10;24.50;99.90
4324;DHT22;2175;51.018;6.994;2023-06-22T07:29:37;24.50;99.90
4324;DHT22;2175;51.018;6.994;2023-06-22T07:32:06;24.70;99.90
4324;DHT22;2175;51.018;6.994;2023-06-22T07:34:31;24.80;99.90
4324;DHT22;2175;51.018;6.994;2023-06-22T07:36:57;24.90;99.90
4324;DHT22;2175;51.018;6.994;2023-06-22T07:39:23;24.90;99.90
4324;DHT22;2175;51.018;6.994;2023-06-22T07:41:51;24.80;99.90
4324;DHT22;2175;51.018;6.994;2023-06-22T07:44:17;24.90;99.90
4324;DHT22;2175;51.018;6.994;2023-06-22T07:46:42;25.00;99.90
4324;DHT22;2175;51.018;6.994;2023-06-22T07:49:08;25.30;99.90
4324;DHT22;2175;51.018;6.994;2023-06-22T07:51:34;25.40;99.90
4324;DHT22;2175;51.018;6.994;2023-06-22T07:54:00;25.30;99.90
4324;DHT22;2175;51.018;6.994;2023-06-22T07:56:25;25.30;99.90
4324;DHT22;2175;51.018;6.994;2023-06-22T07:58:51;25.40;99.90
4324;DHT22;2175;51.018;6.994;2023-06-22T08:01:18;25.40;99.90
4324;DHT22;2175;51.018;6.994;2023-06-22T08:03:47;25.50;99.90
4324;DHT22;2175;51.018;6.994;2023-06-22T08:06:13;25.60;99.90
4324;DHT22;2175;51.018;6.994;2023-06-22T08:08:39;25.50;99.90
4324;DHT22;2175;51.018;6.994;2023-06-22T08:11:05;25.60;99.90
4324;DHT22;2175;51.018;6.994;2023-06-22T08:13:31;25.70;99.90
4324;DHT22;2175;51.018;6.994;2023-06-22T08:15:57;25.80;99.90
4324;DHT22;2175;51.018;6.994;2023-06-22T08:18:22;25.90;99.90
4324;DHT22;2175;51.018;6.994;2023-06-22T08:20:48;26.00;99.90
4324;DHT22;2175;51.018;6.994;2023-06-22T08:23:15;26.20;99.90
4324;DHT22;2175;51.018;6.994;2023-06-22T08:25:40;26.20;99.90
4324;DHT22;2175;51.018;6.994;2023-06-22T08:28:06;26.20;99.90
4324;DHT22;2175;51.018;6.994;2023-06-22T08:30:32;26.20;99.90
4324;DHT22;2175;51.018;6.994;2023-06-22T08:32:58;26.30;99.90
4324;DHT22;2175;51.018;6.994;2023-06-22T08:35:24;26.50;99.90
4324;DHT22;2175;51.018;6.994;2023-06-22T08:37:50;26.60;99.90
4324;DHT22;2175;51.018;6.994;2023-06-22T08:40:20;26.80;99.90
4324;DHT22;2175;51.018;6.994;2023-06-22T08:42:46;26.60;99.90
4324;DHT22;2175;51.018;6.994;2023-06-22T08:45:13;26.80;99.90
4324;DHT22;2175;51.018;6.994;2023-06-22T08:47:39;27.00;99.90
4324;DHT22;2175;51.018;6.994;2023-06-22T08:50:07;27.20;99.90
4324;DHT22;2175;51.018;6.994;2023-06-22T08:52:34;27.30;99.90
4324;DHT22;2175;51.018;6.994;2023-06-22T08:55:00;27.40;99.90
4324;DHT22;2175;51.018;6.994;2023-06-22T08:57:29;27.50;99.90
4324;DHT22;2175;51.018;6.994;2023-06-22T08:59:55;27.50;99.90
4324;DHT22;2175;51.018;6.994;2023-06-22T09:02:24;27.40;99.90
4324;DHT22;2175;51.018;6.994;2023-06-22T09:04:50;27.20;99.90
4324;DHT22;2175;51.018;6.994;2023-06-22T09:07:22;27.30;99.90
4324;DHT22;2175;51.018;6.994;2023-06-22T09:09:48;27.40;99.90
4324;DHT22;2175;51.018;6.994;2023-06-22T09:12:14;27.40;99.90
4324;DHT22;2175;51.018;6.994;2023-06-22T09:14:40;27.50;99.90
4324;DHT22;2175;51.018;6.994;2023-06-22T09:17:05;27.60;99.90
4324;DHT22;2175;51.018;6.994;2023-06-22T09:19:31;27.50;99.90
4324;DHT22;2175;51.018;6.994;2023-06-22T09:21:57;27.50;99.90
4324;DHT22;2175;51.018;6.994;2023-06-22T09:24:22;27.60;99.90
4324;DHT22;2175;51.018;6.994;2023-06-22T09:26:48;27.80;99.90
4324;DHT22;2175;51.018;6.994;2023-06-22T09:29:14;27.90;99.90
4324;DHT22;2175;51.018;6.994;2023-06-22T09:31:39;28.20;99.90
4324;DHT22;2175;51.018;6.994;2023-06-22T09:34:05;28.50;99.90
4324;DHT22;2175;51.018;6.994;2023-06-22T09:36:31;28.50;99.90
4324;DHT22;2175;51.018;6.994;2023-06-22T09:38:56;28.50;99.90
4324;DHT22;2175;51.018;6.994;2023-06-22T09:41:24;28.30;99.90
4324;DHT22;2175;51.018;6.994;2023-06-22T09:43:50;28.20;99.90
4324;DHT22;2175;51.018;6.994;2023-06-22T09:46:16;28.20;99.90
4324;DHT22;2175;51.018;6.994;2023-06-22T09:48:42;28.20;99.90
4324;DHT22;2175;51.018;6.994;2023-06-22T09:51:08;28.20;99.90
4324;DHT22;2175;51.018;6.994;2023-06-22T09:53:34;28.30;99.90
4324;DHT22;2175;51.018;6.994;2023-06-22T09:56:03;28.50;99.90
4324;DHT22;2175;51.018;6.994;2023-06-22T09:58:29;28.60;99.90
4324;DHT22;2175;51.018;6.994;2023-06-22T10:00:55;28.60;99.90
4324;DHT22;2175;51.018;6.994;2023-06-22T10:03:20;28.50;99.90
4324;DHT22;2175;51.018;6.994;2023-06-22T10:05:46;28.40;99.90
4324;DHT22;2175;51.018;6.994;2023-06-22T10:08:12;28.40;99.90
4324;DHT22;2175;51.018;6.994;2023-06-22T10:10:38;28.40;99.90
4324;DHT22;2175;51.018;6.994;2023-06-22T10:13:09;28.20;99.90
4324;DHT22;2175;51.018;6.994;2023-06-22T10:15:35;27.90;99.90
4324;DHT22;2175;51.018;6.994;2023-06-22T10:18:01;27.70;99.90
4324;DHT22;2175;51.018;6.994;2023-06-22T10:20:27;27.50;99.90
4324;DHT22;2175;51.018;6.994;2023-06-22T10:22:53;27.40;99.90
4324;DHT22;2175;51.018;6.994;2023-06-22T10:25:19;27.10;99.90
4324;DHT22;2175;51.018;6.994;2023-06-22T10:27:45;26.90;99.90
4324;DHT22;2175;51.018;6.994;2023-06-22T10:30:11;26.50;99.90
4324;DHT22;2175;51.018;6.994;2023-06-22T10:32:42;26.30;99.90
4324;DHT22;2175;51.018;6.994;2023-06-22T10:35:09;25.90;99.90
4324;DHT22;2175;51.018;6.994;2023-06-22T10:37:36;25.50;99.90
4324;DHT22;2175;51.018;6.994;2023-06-22T10:40:02;25.40;99.90
4324;DHT22;2175;51.018;6.994;2023-06-22T10:42:29;25.30;99.90
4324;DHT22;2175;51.018;6.994;2023-06-22T10:44:55;25.20;99.90
4324;DHT22;2175;51.018;6.994;2023-06-22T10:47:20;25.10;99.90
4324;DHT22;2175;51.018;6.994;2023-06-22T10:49:46;24.90;99.90
4324;DHT22;2175;51.018;6.994;2023-06-22T10:52:11;24.70;99.90
4324;DHT22;2175;51.018;6.994;2023-06-22T10:54:38;24.40;99.90
4324;DHT22;2175;51.018;6.994;2023-06-22T10:57:03;24.30;99.90
4324;DHT22;2175;51.018;6.994;2023-06-22T10:59:29;24.00;99.90
4324;DHT22;2175;51.018;6.994;2023-06-22T11:01:55;23.70;99.90
4324;DHT22;2175;51.018;6.994;2023-06-22T11:04:21;23.60;99.90
4324;DHT22;2175;51.018;6.994;2023-06-22T11:06:48;23.60;99.90
4324;DHT22;2175;51.018;6.994;2023-06-22T11:09:14;23.50;99.90
4324;DHT22;2175;51.018;6.994;2023-06-22T11:11:44;23.50;99.90
4324;DHT22;2175;51.018;6.994;2023-06-22T11:14:10;23.40;99.90
4324;DHT22;2175;51.018;6.994;2023-06-22T11:16:36;23.20;99.90
4324;DHT22;2175;51.018;6.994;2023-06-22T11:19:02;23.20;99.90
4324;DHT22;2175;51.018;6.994;2023-06-22T11:21:28;23.20;99.90
4324;DHT22;2175;51.018;6.994;2023-06-22T11:23:54;23.00;99.90
4324;DHT22;2175;51.018;6.994;2023-06-22T11:26:19;22.80;99.90
4324;DHT22;2175;51.018;6.994;2023-06-22T11:28:46;22.70;99.90
4324;DHT22;2175;51.018;6.994;2023-06-22T11:31:12;22.80;99.90
4324;DHT22;2175;51.018;6.994;2023-06-22T11:33:37;23.00;99.90
4324;DHT22;2175;51.018;6.994;2023-06-22T11:36:03;23.00;99.90
4324;DHT22;2175;51.018;6.994;2023-06-22T11:38:29;23.10;99.90
4324;DHT22;2175;51.018;6.994;2023-06-22T11:40:57;23.10;99.90
4324;DHT22;2175;51.018;6.994;2023-06-22T11:43:23;23.20;99.90
4324;DHT22;2175;51.018;6.994;2023-06-22T11:45:48;23.30;99.90
4324;DHT22;2175;51.018;6.994;2023-06-22T11:48:14;23.30;99.90
4324;DHT22;2175;51.018;6.994;2023-06-22T11:50:40;23.40;99.90
4324;DHT22;2175;51.018;6.994;2023-06-22T11:53:05;23.20;99.90
4324;DHT22;2175;51.018;6.994;2023-06-22T11:55:31;23.10;99.90
4324;DHT22;2175;51.018;6.994;2023-06-22T11:57:57;23.10;99.90
4324;DHT22;2175;51.018;6.994;2023-06-22T12:00:29;23.10;99.90
4324;DHT22;2175;51.018;6.994;2023-06-22T12:02:55;23.20;99.90
4324;DHT22;2175;51.018;6.994;2023-06-22T12:05:21;23.30;99.90
4324;DHT22;2175;51.018;6.994;2023-06-22T12:07:48;23.30;99.90
4324;DHT22;2175;51.018;6.994;2023-06-22T12:10:14;23.20;99.90
4324;DHT22;2175;51.018;6.994;2023-06-22T12:12:40;23.20;99.90
4324;DHT22;2175;51.018;6.994;2023-06-22T12:15:06;23.40;99.90
4324;DHT22;2175;51.018;6.994;2023-06-22T12:17:34;23.70;99.90
4324;DHT22;2175;51.018;6.994;2023-06-22T12:19:59;23.90;99.90
4324;DHT22;2175;51.018;6.994;2023-06-22T12:22:25;24.00;99.90
4324;DHT22;2175;51.018;6.994;2023-06-22T12:24:51;24.10;99.90
4324;DHT22;2175;51.018;6.994;2023-06-22T12:27:17;24.00;99.90
4324;DHT22;2175;51.018;6.994;2023-06-22T12:29:47;24.00;99.90
4324;DHT22;2175;51.018;6.994;2023-06-22T12:32:13;23.80;99.90
4324;DHT22;2175;51.018;6.994;2023-06-22T12:34:39;23.80;99.90
4324;DHT22;2175;51.018;6.994;2023-06-22T12:37:05;23.70;99.90
4324;DHT22;2175;51.018;6.994;2023-06-22T12:39:34;23.80;99.90
4324;DHT22;2175;51.018;6.994;2023-06-22T12:42:00;23.90;99.90
4324;DHT22;2175;51.018;6.994;2023-06-22T12:44:25;24.10;99.90
4324;DHT22;2175;51.018;6.994;2023-06-22T12:46:51;24.20;99.90
4324;DHT22;2175;51.018;6.994;2023-06-22T12:49:17;24.30;99.90
4324;DHT22;2175;51.018;6.994;2023-06-22T12:51:43;24.40;99.90
4324;DHT22;2175;51.018;6.994;2023-06-22T12:54:10;24.40;99.90
4324;DHT22;2175;51.018;6.994;2023-06-22T12:56:37;24.40;99.90
4324;DHT22;2175;51.018;6.994;2023-06-22T12:59:03;24.40;99.90
4324;DHT22;2175;51.018;6.994;2023-06-22T13:01:29;24.50;99.90
4324;DHT22;2175;51.018;6.994;2023-06-22T13:03:56;24.60;99.90
4324;DHT22;2175;51.018;6.994;2023-06-22T13:06:21;24.60;99.90
4324;DHT22;2175;51.018;6.994;2023-06-22T13:08:47;24.50;99.90
4324;DHT22;2175;51.018;6.994;2023-06-22T13:11:13;24.60;99.90
4324;DHT22;2175;51.018;6.994;2023-06-22T13:13:39;24.60;99.90
4324;DHT22;2175;51.018;6.994;2023-06-22T13:16:04;24.80;99.90
4324;DHT22;2175;51.018;6.994;2023-06-22T13:18:30;24.80;99.90
4324;DHT22;2175;51.018;6.994;2023-06-22T13:20:56;24.80;99.90
4324;DHT22;2175;51.018;6.994;2023-06-22T13:23:23;24.80;99.90
4324;DHT22;2175;51.018;6.994;2023-06-22T13:25:49;24.80;99.90
4324;DHT22;2175;51.018;6.994;2023-06-22T13:28:15;24.90;99.90
4324;DHT22;2175;51.018;6.994;2023-06-22T13:30:41;24.90;99.90
4324;DHT22;2175;51.018;6.994;2023-06-22T13:33:08;25.00;99.90
4324;DHT22;2175;51.018;6.994;2023-06-22T13:35:34;24.80;99.90
4324;DHT22;2175;51.018;6.994;2023-06-22T13:38:00;24.80;99.90
4324;DHT22;2175;51.018;6.994;2023-06-22T13:40:26;24.90;99.90
4324;DHT22;2175;51.018;6.994;2023-06-22T13:42:52;24.90;99.90
4324;DHT22;2175;51.018;6.994;2023-06-22T13:45:17;24.90;99.90
4324;DHT22;2175;51.018;6.994;2023-06-22T13:47:44;24.90;99.90
4324;DHT22;2175;51.018;6.994;2023-06-22T13:50:10;24.90;99.90
4324;DHT22;2175;51.018;6.994;2023-06-22T13:52:35;25.10;99.90
4324;DHT22;2175;51.018;6.994;2023-06-22T13:55:02;25.20;99.90
4324;DHT22;2175;51.018;6.994;2023-06-22T13:57:27;25.30;99.90
4324;DHT22;2175;51.018;6.994;2023-06-22T13:59:53;25.30;99.90
4324;DHT22;2175;51.018;6.994;2023-06-22T14:02:19;25.30;99.90
4324;DHT22;2175;51.018;6.994;2023-06-22T14:04:44;25.30;99.90
4324;DHT22;2175;51.018;6.994;2023-06-22T14:07:10;25.30;99.90
4324;DHT22;2175;51.018;6.994;2023-06-22T14:09:36;25.30;99.90
4324;DHT22;2175;51.018;6.994;2023-06-22T14:12:05;25.40;99.90
4324;DHT22;2175;51.018;6.994;2023-06-22T14:14:32;25.50;99.90
4324;DHT22;2175;51.018;6.994;2023-06-22T14:16:58;25.60;99.90
4324;DHT22;2175;51.018;6.994;2023-06-22T14:19:24;25.60;99.90
4324;DHT22;2175;51.018;6.994;2023-06-22T14:21:50;25.60;99.90
4324;DHT22;2175;51.018;6.994;2023-06-22T14:24:16;25.70;99.90
4324;DHT22;2175;51.018;6.994;2023-06-22T14:26:41;25.50;99.90
4324;DHT22;2175;51.018;6.994;2023-06-22T14:29:07;25.30;99.90
4324;DHT22;2175;51.018;6.994;2023-06-22T14:31:32;25.30;99.90
4324;DHT22;2175;51.018;6.994;2023-06-22T14:33:58;25.20;99.90
4324;DHT22;2175;51.018;6.994;2023-06-22T14:36:24;25.20;99.90
4324;DHT22;2175;51.018;6.994;2023-06-22T14:38:49;25.30;99.90
4324;DHT22;2175;51.018;6.994;2023-06-22T14:41:15;25.30;99.90
4324;DHT22;2175;51.018;6.994;2023-06-22T14:43:50;25.30;99.90
4324;DHT22;2175;51.018;6.994;2023-06-22T14:46:17;25.20;99.90
4324;DHT22;2175;51.018;6.994;2023-06-22T14:48:43;25.10;99.90
4324;DHT22;2175;51.018;6.994;2023-06-22T14:51:09;25.00;99.90
4324;DHT22;2175;51.018;6.994;2023-06-22T14:53:36;24.90;99.90
4324;DHT22;2175;51.018;6.994;2023-06-22T14:56:02;24.90;99.90
4324;DHT22;2175;51.018;6.994;2023-06-22T14:58:31;24.70;99.90
4324;DHT22;2175;51.018;6.994;2023-06-22T15:01:02;24.60;99.90
4324;DHT22;2175;51.018;6.994;2023-06-22T15:03:29;24.40;99.90
4324;DHT22;2175;51.018;6.994;2023-06-22T15:05:56;24.40;99.90
4324;DHT22;2175;51.018;6.994;2023-06-22T15:08:22;24.20;99.90
4324;DHT22;2175;51.018;6.994;2023-06-22T15:10:48;23.90;99.90
4324;DHT22;2175;51.018;6.994;2023-06-22T15:13:13;23.50;99.90
4324;DHT22;2175;51.018;6.994;2023-06-22T15:15:39;23.30;99.90
4324;DHT22;2175;51.018;6.994;2023-06-22T15:18:05;23.10;99.90
4324;DHT22;2175;51.018;6.994;2023-06-22T15:20:30;23.00;99.90
4324;DHT22;2175;51.018;6.994;2023-06-22T15:22:59;22.80;99.90
4324;DHT22;2175;51.018;6.994;2023-06-22T15:25:24;22.50;99.90
4324;DHT22;2175;51.018;6.994;2023-06-22T15:27:50;22.50;99.90
4324;DHT22;2175;51.018;6.994;2023-06-22T15:30:16;22.50;99.90
4324;DHT22;2175;51.018;6.994;2023-06-22T15:32:45;22.40;99.90
4324;DHT22;2175;51.018;6.994;2023-06-22T15:35:11;22.40;99.90
4324;DHT22;2175;51.018;6.994;2023-06-22T15:37:37;22.40;99.90
4324;DHT22;2175;51.018;6.994;2023-06-22T15:40:03;22.30;99.90
4324;DHT22;2175;51.018;6.994;2023-06-22T15:42:29;22.30;99.90
4324;DHT22;2175;51.018;6.994;2023-06-22T15:44:55;22.20;99.90
4324;DHT22;2175;51.018;6.994;2023-06-22T15:47:21;22.30;99.90
4324;DHT22;2175;51.018;6.994;2023-06-22T15:49:50;22.30;99.90
4324;DHT22;2175;51.018;6.994;2023-06-22T15:52:18;22.30;99.90
4324;DHT22;2175;51.018;6.994;2023-06-22T15:54:47;22.30;99.90
4324;DHT22;2175;51.018;6.994;2023-06-22T15:57:13;22.20;99.90
4324;DHT22;2175;51.018;6.994;2023-06-22T15:59:43;22.30;99.90
4324;DHT22;2175;51.018;6.994;2023-06-22T16:02:09;22.30;99.90
4324;DHT22;2175;51.018;6.994;2023-06-22T16:04:35;22.20;99.90
4324;DHT22;2175;51.018;6.994;2023-06-22T16:07:01;22.20;99.90
4324;DHT22;2175;51.018;6.994;2023-06-22T16:09:27;22.20;99.90
4324;DHT22;2175;51.018;6.994;2023-06-22T16:11:54;22.20;99.90
4324;DHT22;2175;51.018;6.994;2023-06-22T16:14:20;22.20;99.90
4324;DHT22;2175;51.018;6.994;2023-06-22T16:16:46;22.20;99.90
4324;DHT22;2175;51.018;6.994;2023-06-22T16:19:12;22.10;99.90
4324;DHT22;2175;51.018;6.994;2023-06-22T16:21:37;22.10;99.90
4324;DHT22;2175;51.018;6.994;2023-06-22T16:24:03;22.00;99.90
4324;DHT22;2175;51.018;6.994;2023-06-22T16:26:38;22.10;99.90
4324;DHT22;2175;51.018;6.994;2023-06-22T16:29:05;22.10;99.90
4324;DHT22;2175;51.018;6.994;2023-06-22T16:31:31;22.00;99.90
4324;DHT22;2175;51.018;6.994;2023-06-22T16:33:57;22.00;99.90
4324;DHT22;2175;51.018;6.994;2023-06-22T16:36:22;22.00;99.90
4324;DHT22;2175;51.018;6.994;2023-06-22T16:38:48;21.90;99.90
4324;DHT22;2175;51.018;6.994;2023-06-22T16:41:15;21.90;99.90
4324;DHT22;2175;51.018;6.994;2023-06-22T16:43:41;22.00;99.90
4324;DHT22;2175;51.018;6.994;2023-06-22T16:46:07;22.00;99.90
4324;DHT22;2175;51.018;6.994;2023-06-22T16:48:35;21.90;99.90
4324;DHT22;2175;51.018;6.994;2023-06-22T16:51:01;22.00;99.90
4324;DHT22;2175;51.018;6.994;2023-06-22T16:53:27;22.00;99.90
4324;DHT22;2175;51.018;6.994;2023-06-22T16:56:04;22.00;99.90
4324;DHT22;2175;51.018;6.994;2023-06-22T16:58:30;22.00;99.90
4324;DHT22;2175;51.018;6.994;2023-06-22T17:00:57;22.00;99.90
4324;DHT22;2175;51.018;6.994;2023-06-22T17:03:28;22.10;99.90
4324;DHT22;2175;51.018;6.994;2023-06-22T17:05:58;22.10;99.90
4324;DHT22;2175;51.018;6.994;2023-06-22T17:08:28;22.10;99.90
4324;DHT22;2175;51.018;6.994;2023-06-22T17:10:56;22.10;99.90